Oneonta, New York
Current Conditions -  °F | °C
As of 6:53 PM on Wednesday 22 Oct 2014 (Local Time) from KBGM Reporting Station
Overcast Overcast  
Wind Chill: 40°   Ceiling: 800
Heat Index: 47°   Visibility: 10mi
Dew Point: 44°   Wind: 18mph
Humidity: 90%   Direction: 340°NNW
Pressure: 30.02"   Gusts: 25mph
Location:  42.46°N, 75.06°W
Report Text: KBGM 222253Z 34016G22KT 10SM OVC008 08/07 A3002 RMK AO2 RAE29 SLP173 P0000 T00830067
Loading
Personal Weather Stations






























Interactive Weather Map
Tropical Storm Tracking
New forecast layout! Learn more

10-Day Weather Forecast

Advertisements
Track Severe Weather on mobile